createdAt,value
2019-04-29T00:00:01.130Z,23.63
2019-04-29T00:02:35.516Z,18.00
2019-04-29T00:05:06.876Z,15.17
2019-04-29T00:07:36.537Z,18.80
2019-04-29T00:10:07.857Z,15.87
2019-04-29T00:12:37.464Z,16.37
2019-04-29T00:15:15.171Z,16.10
2019-04-29T00:17:47.452Z,17.53
2019-04-29T00:20:18.723Z,19.03
2019-04-29T00:22:48.252Z,20.93
2019-04-29T00:25:18.163Z,16.50
2019-04-29T00:27:47.675Z,16.20
2019-04-29T00:30:18.913Z,18.53
2019-04-29T00:32:48.723Z,16.93
2019-04-29T00:35:18.286Z,16.33
2019-04-29T00:37:58.496Z,17.47
2019-04-29T00:40:46.177Z,18.83
2019-04-29T00:43:32.463Z,20.40
2019-04-29T00:46:01.971Z,16.33
2019-04-29T00:48:31.730Z,16.07
2019-04-29T00:51:01.229Z,18.03
2019-04-29T00:53:30.993Z,19.37
2019-04-29T00:56:02.167Z,19.30
2019-04-29T00:58:31.702Z,25.77
2019-04-29T01:01:01.253Z,20.80
2019-04-29T01:03:31.130Z,21.83
2019-04-29T01:06:00.635Z,18.70
2019-04-29T01:08:30.210Z,19.00
2019-04-29T01:10:59.866Z,21.70
2019-04-29T01:13:29.523Z,21.50
2019-04-29T01:15:59.416Z,20.93
2019-04-29T01:18:28.924Z,29.03
2019-04-29T01:20:58.528Z,18.63
2019-04-29T01:23:28.107Z,22.13
2019-04-29T01:25:59.291Z,20.50
2019-04-29T01:28:36.254Z,23.60
2019-04-29T01:31:07.961Z,22.73
2019-04-29T01:33:37.519Z,29.40
2019-04-29T01:36:17.943Z,29.37
2019-04-29T01:38:49.149Z,26.97
2019-04-29T01:41:26.569Z,26.10
2019-04-29T01:44:00.541Z,27.73
2019-04-29T01:46:30.224Z,30.40
2019-04-29T01:49:00.141Z,33.03
2019-04-29T01:51:29.780Z,30.17
2019-04-29T01:53:59.394Z,29.30
2019-04-29T01:56:28.991Z,26.93
2019-04-29T01:58:58.523Z,29.23
2019-04-29T02:01:28.120Z,29.53
2019-04-29T02:03:57.738Z,25.70
2019-04-29T02:06:27.394Z,26.80
2019-04-29T02:08:57.145Z,33.30
2019-04-29T02:11:26.837Z,30.73
2019-04-29T02:13:56.586Z,30.77
2019-04-29T02:16:26.096Z,31.03
2019-04-29T02:18:55.583Z,31.90
2019-04-29T02:21:25.152Z,26.73
2019-04-29T02:23:59.935Z,32.93
2019-04-29T02:26:29.470Z,27.00
2019-04-29T02:28:59.007Z,28.27
2019-04-29T02:31:42.063Z,23.00
2019-04-29T02:34:11.695Z,27.87
2019-04-29T02:36:41.298Z,24.13
2019-04-29T02:39:22.489Z,22.00
2019-04-29T02:41:56.589Z,21.70
2019-04-29T02:44:26.084Z,21.70
2019-04-29T02:46:55.606Z,24.60
2019-04-29T02:49:25.557Z,28.57
2019-04-29T02:51:55.099Z,32.53
2019-04-29T02:54:26.552Z,37.37
2019-04-29T02:57:00.663Z,31.40
2019-04-29T02:59:40.880Z,28.90
2019-04-29T03:02:12.030Z,29.33
2019-04-29T03:04:51.746Z,29.67
2019-04-29T03:07:22.021Z,37.23
2019-04-29T03:09:51.571Z,29.67
2019-04-29T03:12:21.056Z,29.70
2019-04-29T03:14:50.632Z,31.03
2019-04-29T03:17:20.867Z,29.37
2019-04-29T03:20:07.715Z,30.20
2019-04-29T03:22:39.076Z,29.80
2019-04-29T03:25:08.854Z,26.30
2019-04-29T03:27:38.464Z,27.97
2019-04-29T03:30:08.482Z,28.70
2019-04-29T03:32:38.083Z,31.30
2019-04-29T03:35:07.938Z,40.63
2019-04-29T03:37:37.707Z,27.63
2019-04-29T03:40:07.747Z,26.90
2019-04-29T03:42:37.274Z,29.60
2019-04-29T03:45:08.426Z,29.77
2019-04-29T03:47:37.922Z,31.70
2019-04-29T03:50:07.614Z,27.83
2019-04-29T03:52:37.117Z,31.80
2019-04-29T03:55:06.859Z,30.43
2019-04-29T03:57:37.423Z,29.00
2019-04-29T04:00:08.497Z,25.43
2019-04-29T04:02:39.670Z,24.50
2019-04-29T04:05:23.208Z,24.60
2019-04-29T04:07:57.233Z,24.20
2019-04-29T04:10:26.716Z,23.53
2019-04-29T04:12:56.255Z,25.23
2019-04-29T04:15:25.939Z,22.20
2019-04-29T04:18:03.169Z,20.63
2019-04-29T04:20:32.656Z,22.73
2019-04-29T04:23:02.181Z,30.07
2019-04-29T04:25:31.768Z,22.43
2019-04-29T04:28:01.261Z,28.93
2019-04-29T04:30:30.832Z,26.90
2019-04-29T04:33:00.466Z,27.57
2019-04-29T04:35:30.048Z,27.20
2019-04-29T04:37:59.644Z,32.73
2019-04-29T04:40:30.932Z,25.73
2019-04-29T04:43:00.541Z,25.20
2019-04-29T04:45:30.493Z,27.27
2019-04-29T04:47:59.976Z,27.50
2019-04-29T04:50:29.533Z,36.43
2019-04-29T04:52:59.024Z,31.87
2019-04-29T04:55:30.275Z,27.07
2019-04-29T04:57:59.764Z,26.63
2019-04-29T05:00:32.042Z,26.90
2019-04-29T05:03:01.643Z,27.30
2019-04-29T05:05:31.535Z,31.77
2019-04-29T05:08:01.051Z,29.73
2019-04-29T05:10:30.542Z,26.57
2019-04-29T05:13:00.073Z,26.87
2019-04-29T05:15:29.666Z,26.53
2019-04-29T05:17:59.160Z,28.80
2019-04-29T05:20:28.689Z,27.73
2019-04-29T05:23:00.915Z,27.20
2019-04-29T05:25:31.268Z,23.90
2019-04-29T05:28:00.902Z,24.20
2019-04-29T05:30:30.562Z,27.27
2019-04-29T05:33:00.257Z,25.00
2019-04-29T05:35:34.363Z,26.80
2019-04-29T05:38:17.306Z,24.83
2019-04-29T05:40:48.492Z,27.67
2019-04-29T05:43:19.612Z,27.17
2019-04-29T05:45:53.669Z,32.57
2019-04-29T05:48:23.243Z,22.57
2019-04-29T05:51:10.330Z,22.20
2019-04-29T05:53:41.560Z,26.07
2019-04-29T05:56:11.053Z,28.50
2019-04-29T05:58:40.556Z,23.17
2019-04-29T06:01:11.799Z,26.10
2019-04-29T06:03:44.197Z,34.50
2019-04-29T06:06:12.551Z,38.10
2019-04-29T06:08:42.106Z,31.10
2019-04-29T06:11:11.597Z,31.37
2019-04-29T06:13:41.101Z,27.73
2019-04-29T06:16:10.612Z,30.47
2019-04-29T06:18:41.021Z,30.77
2019-04-29T06:21:10.684Z,27.23
2019-04-29T06:23:46.188Z,30.63
2019-04-29T06:26:15.803Z,32.07
2019-04-29T06:28:45.531Z,33.50
2019-04-29T06:31:15.135Z,31.40
2019-04-29T06:33:44.718Z,37.60
2019-04-29T06:36:14.300Z,33.93
2019-04-29T06:38:43.814Z,31.67
2019-04-29T06:41:13.357Z,35.83
2019-04-29T06:43:42.881Z,31.90
2019-04-29T06:46:12.407Z,35.90
2019-04-29T06:48:41.945Z,42.70
2019-04-29T06:51:11.448Z,31.43
2019-04-29T06:53:41.056Z,38.77
2019-04-29T06:56:10.649Z,29.17
2019-04-29T06:58:40.228Z,35.17
2019-04-29T07:01:09.824Z,34.57
2019-04-29T07:03:39.481Z,35.53
2019-04-29T07:06:09.049Z,37.50
2019-04-29T07:08:38.601Z,35.90
2019-04-29T07:11:08.197Z,34.33
2019-04-29T07:13:37.778Z,37.27
2019-04-29T07:16:07.303Z,38.53
2019-04-29T07:18:40.295Z,34.93
2019-04-29T07:21:11.928Z,33.87
2019-04-29T07:23:39.278Z,35.47
2019-04-29T07:26:08.768Z,34.97
2019-04-29T07:28:38.315Z,32.27
2019-04-29T07:31:10.135Z,43.03
2019-04-29T07:33:39.154Z,37.10
2019-04-29T07:36:11.108Z,30.97
2019-04-29T07:38:41.528Z,31.83
2019-04-29T07:41:14.284Z,30.43
2019-04-29T07:43:43.028Z,31.00
2019-04-29T07:46:27.284Z,37.57
2019-04-29T07:49:01.780Z,30.27
2019-04-29T07:51:28.084Z,34.30
2019-04-29T07:53:57.613Z,32.73
2019-04-29T07:56:28.080Z,30.57
2019-04-29T07:58:58.825Z,34.53
2019-04-29T08:01:28.917Z,34.93
2019-04-29T08:03:58.462Z,39.10
2019-04-29T08:06:28.217Z,34.70
2019-04-29T08:09:03.143Z,31.87
2019-04-29T08:11:31.472Z,34.53
2019-04-29T08:14:01.876Z,34.87
2019-04-29T08:16:32.185Z,34.70
2019-04-29T08:19:04.688Z,35.03
2019-04-29T08:21:34.095Z,36.80
2019-04-29T08:24:03.903Z,35.50
2019-04-29T08:26:37.469Z,31.17
2019-04-29T08:29:04.824Z,32.67
2019-04-29T08:31:34.389Z,29.70
2019-04-29T08:34:05.592Z,35.73
2019-04-29T08:36:35.100Z,39.73
2019-04-29T08:39:08.682Z,31.30
2019-04-29T08:41:37.711Z,29.40
2019-04-29T08:44:16.409Z,32.30
2019-04-29T08:46:59.664Z,35.73
2019-04-29T08:49:29.352Z,31.50
2019-04-29T08:51:59.024Z,28.27
2019-04-29T08:54:28.969Z,36.77
2019-04-29T08:57:02.716Z,28.93
2019-04-29T08:59:29.768Z,26.83
2019-04-29T09:01:59.315Z,26.20
2019-04-29T09:04:33.352Z,28.97
2019-04-29T09:07:11.964Z,25.67
2019-04-29T09:09:31.332Z,26.73
2019-04-29T09:12:00.850Z,21.10
2019-04-29T09:14:30.388Z,20.30
2019-04-29T09:16:59.962Z,23.50
2019-04-29T09:19:29.465Z,22.60
2019-04-29T09:22:03.568Z,24.23
2019-04-29T09:24:33.175Z,21.50
2019-04-29T09:27:11.305Z,19.33
2019-04-29T09:29:40.923Z,25.10
2019-04-29T09:32:11.313Z,20.80
2019-04-29T09:34:40.918Z,20.37
2019-04-29T09:37:10.412Z,24.47
2019-04-29T09:39:43.303Z,22.43
2019-04-29T09:42:14.994Z,17.63
2019-04-29T09:44:58.556Z,16.80
2019-04-29T09:47:29.802Z,18.07
2019-04-29T09:49:59.389Z,19.43
2019-04-29T09:52:30.134Z,25.87
2019-04-29T09:55:03.718Z,21.87
2019-04-29T09:57:30.892Z,18.43
2019-04-29T10:00:18.558Z,19.47
2019-04-29T10:02:49.978Z,15.40
2019-04-29T10:05:25.176Z,20.27
2019-04-29T10:07:54.739Z,17.33
2019-04-29T10:10:25.637Z,16.87
2019-04-29T10:12:56.747Z,16.83
2019-04-29T10:15:37.438Z,15.63
2019-04-29T10:18:20.549Z,18.27
2019-04-29T10:20:54.553Z,16.40
2019-04-29T10:23:24.083Z,22.63
2019-04-29T10:25:53.604Z,16.07
2019-04-29T10:28:23.163Z,16.20
2019-04-29T10:30:52.730Z,16.60
2019-04-29T10:33:23.184Z,17.03
2019-04-29T10:35:53.016Z,15.50
2019-04-29T10:38:22.565Z,15.50
2019-04-29T10:40:56.624Z,14.90
2019-04-29T10:43:44.663Z,14.83
2019-04-29T10:46:34.079Z,15.37
2019-04-29T10:49:05.630Z,15.20
2019-04-29T10:51:35.315Z,13.40
2019-04-29T10:54:05.470Z,12.90
2019-04-29T10:56:35.277Z,16.93
2019-04-29T10:59:09.109Z,16.30
2019-04-29T11:02:09.332Z,17.57
2019-04-29T11:04:37.918Z,14.37
2019-04-29T11:07:28.159Z,15.20
2019-04-29T11:10:02.198Z,15.47
2019-04-29T11:12:33.237Z,12.67
2019-04-29T11:15:09.861Z,13.30
2019-04-29T11:17:39.798Z,17.73
2019-04-29T11:20:11.230Z,14.57
2019-04-29T11:22:48.728Z,17.03
2019-04-29T11:25:32.578Z,11.47
2019-04-29T11:28:04.557Z,13.47
2019-04-29T11:30:39.515Z,12.70
2019-04-29T11:33:14.207Z,12.97
2019-04-29T11:35:59.200Z,12.33
2019-04-29T11:38:33.363Z,14.07
2019-04-29T11:41:00.135Z,15.70
2019-04-29T11:43:29.870Z,16.03
2019-04-29T11:46:00.641Z,15.33
2019-04-29T11:48:30.166Z,14.20
2019-04-29T11:51:02.317Z,11.43
2019-04-29T11:53:32.080Z,12.40
2019-04-29T11:56:01.625Z,13.47
2019-04-29T11:58:35.825Z,12.13
2019-04-29T12:01:22.620Z,12.40
2019-04-29T12:03:56.535Z,14.13
2019-04-29T12:06:25.444Z,14.50
2019-04-29T12:08:55.549Z,16.53
2019-04-29T12:11:28.720Z,12.07
2019-04-29T12:14:04.658Z,10.47
2019-04-29T12:16:36.156Z,12.30
2019-04-29T12:19:07.423Z,14.20
2019-04-29T12:21:38.640Z,15.30
2019-04-29T12:24:08.637Z,10.40
2019-04-29T12:26:42.874Z,12.20
2019-04-29T12:29:13.550Z,15.30
2019-04-29T12:31:49.435Z,15.23
2019-04-29T12:34:26.783Z,12.40
2019-04-29T12:36:56.808Z,13.07
2019-04-29T12:39:43.438Z,11.77
2019-04-29T12:42:27.087Z,11.30
2019-04-29T12:45:04.261Z,11.87
2019-04-29T12:47:38.549Z,11.47
2019-04-29T12:50:08.789Z,8.67
2019-04-29T12:52:38.334Z,7.57
2019-04-29T12:55:20.352Z,7.40
2019-04-29T12:57:40.155Z,10.20
2019-04-29T13:00:11.809Z,8.83
2019-04-29T13:02:55.662Z,9.50
2019-04-29T13:05:43.038Z,9.43
2019-04-29T13:08:19.905Z,8.67
2019-04-29T13:10:53.908Z,7.27
2019-04-29T13:13:23.532Z,7.77
2019-04-29T13:15:57.666Z,7.60
2019-04-29T13:18:34.805Z,10.63
2019-04-29T13:21:10.266Z,8.20
2019-04-29T13:23:46.965Z,10.50
2019-04-29T13:26:08.090Z,7.30
2019-04-29T13:28:51.793Z,11.03
2019-04-29T13:31:09.109Z,12.87
2019-04-29T13:33:38.616Z,9.07
2019-04-29T13:36:08.228Z,7.63
2019-04-29T13:38:37.785Z,9.23
2019-04-29T13:41:13.377Z,10.70
2019-04-29T13:43:38.631Z,11.53
2019-04-29T13:46:13.417Z,8.00
2019-04-29T13:49:12.244Z,11.53
2019-04-29T13:51:36.483Z,8.80
2019-04-29T13:54:06.192Z,12.30
2019-04-29T13:56:54.623Z,7.90
2019-04-29T13:59:10.622Z,14.53
2019-04-29T14:01:58.598Z,19.00
2019-04-29T14:04:24.570Z,14.23
2019-04-29T14:06:57.272Z,8.50
2019-04-29T14:09:22.321Z,9.23
2019-04-29T14:12:01.768Z,13.03
2019-04-29T14:14:24.599Z,11.23
2019-04-29T14:17:11.524Z,16.77
2019-04-29T14:19:40.337Z,10.70
2019-04-29T14:21:57.248Z,10.90
2019-04-29T14:24:27.190Z,7.20
2019-04-29T14:26:56.739Z,7.63
2019-04-29T14:29:28.422Z,7.20
2019-04-29T14:32:01.218Z,7.10
2019-04-29T14:34:34.861Z,10.73
2019-04-29T14:37:19.636Z,6.80
2019-04-29T14:39:37.380Z,7.50
2019-04-29T14:42:08.396Z,7.33
2019-04-29T14:44:45.342Z,6.90
2019-04-29T14:47:22.652Z,9.00
2019-04-29T14:49:56.638Z,6.77
2019-04-29T14:52:26.169Z,5.33
2019-04-29T14:54:55.755Z,6.03
2019-04-29T14:57:25.320Z,8.30
2019-04-29T14:59:54.994Z,6.97
2019-04-29T15:02:26.571Z,5.50
2019-04-29T15:04:56.180Z,6.70
2019-04-29T15:07:27.376Z,7.70
2019-04-29T15:09:58.216Z,5.70
2019-04-29T15:12:30.550Z,5.70
2019-04-29T15:15:04.284Z,5.83
2019-04-29T15:17:46.626Z,7.30
2019-04-29T15:20:25.317Z,10.20
2019-04-29T15:22:55.236Z,6.10
2019-04-29T15:25:24.812Z,6.03
2019-04-29T15:27:54.412Z,8.80
2019-04-29T15:30:23.901Z,6.93
2019-04-29T15:32:57.887Z,9.23
2019-04-29T15:35:25.688Z,10.87
2019-04-29T15:37:55.500Z,8.87
2019-04-29T15:40:26.263Z,7.47
2019-04-29T15:42:56.357Z,9.23
2019-04-29T15:45:28.135Z,9.13
2019-04-29T15:47:57.043Z,9.13
2019-04-29T15:50:26.662Z,7.13
2019-04-29T15:52:58.784Z,14.83
2019-04-29T15:55:27.340Z,8.63
2019-04-29T15:57:56.932Z,9.20
2019-04-29T16:00:26.847Z,10.50
2019-04-29T16:02:59.867Z,8.67
2019-04-29T16:05:31.158Z,8.73
2019-04-29T16:08:05.150Z,7.03
2019-04-29T16:10:57.985Z,8.20
2019-04-29T16:13:27.798Z,9.20
2019-04-29T16:15:55.194Z,10.80
2019-04-29T16:18:24.708Z,8.20
2019-04-29T16:20:54.316Z,8.23
2019-04-29T16:23:23.789Z,8.40
2019-04-29T16:25:54.429Z,8.90
2019-04-29T16:28:31.315Z,7.87
2019-04-29T16:30:55.553Z,9.63
2019-04-29T16:33:25.124Z,9.00
2019-04-29T16:35:57.663Z,8.30
2019-04-29T16:38:28.002Z,9.20
2019-04-29T16:41:12.439Z,8.07
2019-04-29T16:43:40.969Z,8.17
2019-04-29T16:46:12.153Z,11.43
2019-04-29T16:48:41.894Z,10.50
2019-04-29T16:51:14.586Z,8.77
2019-04-29T16:53:42.802Z,9.20
2019-04-29T16:56:15.992Z,25.10
2019-04-29T16:58:43.589Z,8.03
2019-04-29T17:01:14.482Z,10.20
2019-04-29T17:03:44.206Z,10.40
2019-04-29T17:06:13.705Z,14.47
2019-04-29T17:08:50.613Z,23.83
2019-04-29T17:11:19.399Z,15.47
2019-04-29T17:13:48.959Z,24.37
2019-04-29T17:16:20.250Z,13.07
2019-04-29T17:18:49.772Z,12.70
2019-04-29T17:21:19.278Z,9.97
2019-04-29T17:23:48.827Z,13.90
2019-04-29T17:26:19.494Z,11.50
2019-04-29T17:29:17.079Z,12.47
2019-04-29T17:31:57.859Z,15.43
2019-04-29T17:34:56.122Z,10.67
2019-04-29T17:37:00.667Z,16.60
2019-04-29T17:39:31.379Z,15.33
2019-04-29T17:42:00.940Z,15.90
2019-04-29T17:44:33.056Z,15.37
2019-04-29T17:47:13.225Z,13.80
2019-04-29T17:49:44.341Z,13.87
2019-04-29T17:52:18.866Z,15.00
2019-04-29T17:55:05.304Z,18.23
2019-04-29T17:57:46.490Z,18.43
2019-04-29T18:00:42.184Z,17.80
2019-04-29T18:03:25.200Z,18.00
2019-04-29T18:05:59.486Z,24.57
2019-04-29T18:08:32.134Z,21.30
2019-04-29T18:11:04.762Z,18.97
2019-04-29T18:13:35.303Z,21.57
2019-04-29T18:16:17.491Z,20.00
2019-04-29T18:18:53.266Z,19.27
2019-04-29T18:21:28.272Z,17.47
2019-04-29T18:23:59.551Z,25.30
2019-04-29T18:26:37.449Z,21.93
2019-04-29T18:29:07.988Z,23.80
2019-04-29T18:31:37.713Z,27.37
2019-04-29T18:34:08.272Z,25.07
2019-04-29T18:36:37.770Z,22.57
2019-04-29T18:39:09.351Z,19.50
2019-04-29T18:41:38.881Z,25.23
2019-04-29T18:44:18.603Z,24.93
2019-04-29T18:46:45.889Z,26.00
2019-04-29T18:49:12.229Z,27.23
2019-04-29T18:51:42.112Z,23.63
2019-04-29T18:54:12.005Z,27.20
2019-04-29T18:56:41.592Z,25.43
2019-04-29T18:59:11.112Z,29.60
2019-04-29T19:01:40.729Z,26.73
2019-04-29T19:04:16.835Z,24.00
2019-04-29T19:06:44.071Z,32.17
2019-04-29T19:09:20.128Z,22.63
2019-04-29T19:11:46.619Z,27.20
2019-04-29T19:14:20.532Z,25.37
2019-04-29T19:16:47.969Z,23.53
2019-04-29T19:19:18.878Z,23.63
2019-04-29T19:21:48.490Z,23.07
2019-04-29T19:24:18.033Z,24.47
2019-04-29T19:26:47.785Z,23.33
2019-04-29T19:29:17.296Z,25.00
2019-04-29T19:31:49.821Z,31.00
2019-04-29T19:34:18.805Z,22.70
2019-04-29T19:36:50.685Z,25.20
2019-04-29T19:39:21.668Z,20.80
2019-04-29T19:41:51.744Z,22.13
2019-04-29T19:44:21.340Z,22.07
2019-04-29T19:46:50.976Z,21.53
2019-04-29T19:49:20.469Z,21.23
2019-04-29T19:51:50.048Z,18.60
2019-04-29T19:54:24.589Z,19.70
2019-04-29T19:56:55.627Z,19.70
2019-04-29T19:59:22.379Z,20.37
2019-04-29T20:02:02.150Z,22.00
2019-04-29T20:04:38.498Z,20.60
2019-04-29T20:07:10.584Z,19.80
2019-04-29T20:09:41.428Z,18.63
2019-04-29T20:12:12.997Z,17.97
2019-04-29T20:14:43.480Z,17.70
2019-04-29T20:17:18.172Z,18.67
2019-04-29T20:19:55.293Z,17.30
2019-04-29T20:22:21.069Z,15.73
2019-04-29T20:24:51.052Z,17.00
2019-04-29T20:27:21.493Z,22.57
2019-04-29T20:29:51.383Z,17.77
2019-04-29T20:32:22.486Z,20.47
2019-04-29T20:34:56.611Z,18.33
2019-04-29T20:37:25.984Z,18.10
2019-04-29T20:39:59.037Z,20.90
2019-04-29T20:42:26.745Z,20.57
2019-04-29T20:44:56.456Z,21.10
2019-04-29T20:47:37.597Z,25.20
2019-04-29T20:49:58.869Z,20.10
2019-04-29T20:52:43.411Z,21.20
2019-04-29T20:55:15.556Z,22.63
2019-04-29T20:57:47.949Z,23.57
2019-04-29T21:00:20.223Z,22.50
2019-04-29T21:02:49.054Z,25.93
2019-04-29T21:05:23.172Z,23.80
2019-04-29T21:07:49.976Z,21.00
2019-04-29T21:10:19.965Z,21.37
2019-04-29T21:12:55.775Z,20.43
2019-04-29T21:15:27.300Z,25.27
2019-04-29T21:17:58.619Z,23.57
2019-04-29T21:20:28.388Z,18.90
2019-04-29T21:23:00.949Z,20.40
2019-04-29T21:25:30.609Z,22.60
2019-04-29T21:28:02.243Z,24.67
2019-04-29T21:30:35.571Z,22.33
2019-04-29T21:33:02.696Z,20.40
2019-04-29T21:35:54.482Z,24.30
2019-04-29T21:38:28.383Z,23.93
2019-04-29T21:41:08.533Z,24.73
2019-04-29T21:43:53.543Z,25.37
2019-04-29T21:46:25.733Z,23.47
2019-04-29T21:48:52.295Z,27.53
2019-04-29T21:51:21.947Z,21.17
2019-04-29T21:53:51.507Z,25.00
2019-04-29T21:56:21.010Z,27.03
2019-04-29T21:58:50.723Z,24.70
2019-04-29T22:01:20.410Z,28.67
2019-04-29T22:03:49.928Z,28.10
2019-04-29T22:06:19.476Z,27.70
2019-04-29T22:08:48.977Z,32.40
2019-04-29T22:11:18.579Z,33.40
2019-04-29T22:13:48.185Z,32.93
2019-04-29T22:16:17.829Z,34.70
2019-04-29T22:18:51.960Z,35.97
2019-04-29T22:21:22.189Z,33.67
2019-04-29T22:23:51.241Z,33.37
2019-04-29T22:26:23.299Z,34.20
2019-04-29T22:28:53.392Z,32.70
2019-04-29T22:31:26.868Z,34.77
2019-04-29T22:33:57.295Z,32.97
2019-04-29T22:36:26.464Z,37.30
2019-04-29T22:38:55.983Z,32.40
2019-04-29T22:41:43.452Z,33.83
2019-04-29T22:44:21.611Z,36.87
2019-04-29T22:46:47.239Z,32.83
2019-04-29T22:49:18.193Z,36.23
2019-04-29T22:51:49.802Z,30.17
2019-04-29T22:54:22.025Z,32.30
2019-04-29T22:56:53.716Z,36.40
2019-04-29T22:59:22.084Z,31.57
2019-04-29T23:01:51.759Z,34.27
2019-04-29T23:04:21.426Z,30.53
2019-04-29T23:06:50.949Z,44.23
2019-04-29T23:09:20.493Z,32.13
2019-04-29T23:11:50.048Z,29.83
2019-04-29T23:14:19.777Z,35.80
2019-04-29T23:16:49.357Z,33.10
2019-04-29T23:19:19.437Z,35.40
2019-04-29T23:21:50.609Z,31.30
2019-04-29T23:24:27.335Z,33.87
2019-04-29T23:26:56.867Z,30.07
2019-04-29T23:29:26.528Z,32.23
2019-04-29T23:31:59.640Z,32.33
2019-04-29T23:34:29.166Z,33.50
2019-04-29T23:36:59.224Z,31.23
2019-04-29T23:39:28.806Z,32.80
2019-04-29T23:41:58.450Z,37.00
2019-04-29T23:44:28.029Z,36.47
2019-04-29T23:46:57.638Z,40.00
2019-04-29T23:49:27.177Z,33.40
2019-04-29T23:51:56.746Z,34.07
2019-04-29T23:54:27.712Z,37.77
2019-04-29T23:57:02.859Z,34.63
2019-04-29T23:59:35.227Z,42.97
